Detall de PIREP

Printer-friendly versionPDF version

[2012/10/02 13:55:00]
Flight IATA:CT3233
Pilot Number:012
Company ICAO:CAT
Aircraft Type:A343/E
PAX:159
Departing Airport: LEMD
Destination Airport: LEPA
Alternate Airport:LEBL
Online: VATSIM
Route:NANDO UM871 GODOX
Flight Level:F300
No Slew and time accel
No pause
Crash detect
Detect pilot in Cockpit between each 30 and 45 minutes
13:55 Zero fuel Weight: 313878 Lbs, Fuel Weight: 47590 Lbs
13:55 VATSIM:LEMD 021330Z 19008KT 130V220 CAVOK 22/09 Q1022 NOSIG
13:55 VATSIM:LEPA 021330Z 22013KT 9999 FEW020 25/18 Q1021 NOSIG
13:55 VOICE CATALONIAN
14:01 Parking Brakes off
14:05 Take-off
14:05 Take off Weight: 360223 Lbs
14:05 Wind: 188º @ 008 Knots Heading: 143º
14:05 POS N40º 28´ 58´´ W003º 32´ 44´´
14:05 Gear Up: 202 Knots
14:05 Flaps:2 at 203 Knots
14:05 Flaps:1 at 215 Knots
14:05 Flaps:0 at 250 Knots
14:09 TOC
14:09 Fuel Weight: 42946 Lb
14:20 Wind:278º@043 Knots Heading: 142º Ground Speed: 512 Knots Altitude 30213 ft
14:29 TOD
14:29 Fuel Weight: 39780 Lb
14:35 Wind:284º@019 Knots Heading: 086º Ground Speed: 413 Knots Altitude 18667 ft
14:50 Wind:234º@009 Knots Heading: 072º Ground Speed: 269 Knots Altitude 2979 ft
14:50 Flaps:1 at 244 Knots
14:51 Flaps:3 at 185 Knots
14:51 Gear Down: 183 Knots
14:52 Flaps:4 at 142 Knots
14:52 Flaps:5 at 140 Knots
14:54 TouchDown:Rate -299 ft/min Speed: 120 Knots
14:55 VATSIM:LEPA 021430Z 22012KT 9999 FEW020 25/19 Q1021 NOSIG
14:55 Land
14:55 Wind:222º@013 Knots
14:55 Heading: 236º
14:55 Flight Duration: 00:50
14:55 Landing Weight: 351602 Lbs
14:55 POS N39º 32´ 53´´ E002º 44´ 47´´
14:56 Parking brakes on
14:56 Block to Block Duration: 00:55
14:56 Final Fuel: 37614 Lbls
14:56 Spent Fuel: 9975 Lbls
14:56 Flight Length: 327 NM
14:56 TOD Land Length: 131 NM

Exportar CSV

Powered by Drupal - Modified by Danger4k